POP weather

Gregorio Luperon International Airport
Puerto Plata, Puerto Plata Province, Dominican Republic

Public forecast

Using degrees Celsius for public forecast. Weather courtesy of forecast.io.

METAR (pilot weather report)

Retrieved 2019/03/19 06:00 UTC (2 hours ago):

MDPP 190600Z 00000KT 9999 FEW018 21/20 Q1015

TAF (pilot weather forecast)

Forecast is more than 12 hours old.

Retrieved 2019/03/16 06:05 UTC (3 days ago):

TAF MDPP 160400Z 1606/1706 00000KT 9999 FEW018 PROB30 1606/1612 8000 -SH BKN016 BECMG 1614/1616 09010KT